sensor_id;sensor_type;location;lat;lon;timestamp;P1;durP1;ratioP1;P2;durP2;ratioP2
59314;SDS011;46521;50.160;20.802;2023-03-01T00:14:30;65.90;;;36.70;;
59314;SDS011;46521;50.160;20.802;2023-03-01T00:24:31;71.10;;;38.50;;
59314;SDS011;46521;50.160;20.802;2023-03-01T00:34:33;74.70;;;38.50;;
59314;SDS011;46521;50.160;20.802;2023-03-01T00:44:34;72.93;;;37.47;;
59314;SDS011;46521;50.160;20.802;2023-03-01T00:54:36;75.00;;;39.10;;
59314;SDS011;46521;50.160;20.802;2023-03-01T01:04:37;74.65;;;39.10;;
59314;SDS011;46521;50.160;20.802;2023-03-01T01:14:39;73.47;;;36.90;;
59314;SDS011;46521;50.160;20.802;2023-03-01T01:24:40;57.70;;;31.25;;
59314;SDS011;46521;50.160;20.802;2023-03-01T01:34:42;60.45;;;33.35;;
59314;SDS011;46521;50.160;20.802;2023-03-01T01:44:46;54.70;;;28.70;;
59314;SDS011;46521;50.160;20.802;2023-03-01T02:05:05;53.90;;;27.30;;
59314;SDS011;46521;50.160;20.802;2023-03-01T02:15:14;51.95;;;29.65;;
59314;SDS011;46521;50.160;20.802;2023-03-01T02:35:19;49.35;;;29.15;;
59314;SDS011;46521;50.160;20.802;2023-03-01T02:45:22;58.93;;;28.97;;
59314;SDS011;46521;50.160;20.802;2023-03-01T02:55:24;55.10;;;31.60;;
59314;SDS011;46521;50.160;20.802;2023-03-01T03:05:27;59.70;;;31.10;;
59314;SDS011;46521;50.160;20.802;2023-03-01T03:15:30;61.00;;;30.13;;
59314;SDS011;46521;50.160;20.802;2023-03-01T03:25:32;56.45;;;30.50;;
59314;SDS011;46521;50.160;20.802;2023-03-01T03:35:40;58.00;;;30.85;;
59314;SDS011;46521;50.160;20.802;2023-03-01T03:45:44;56.90;;;28.80;;
59314;SDS011;46521;50.160;20.802;2023-03-01T03:55:47;49.90;;;28.40;;
59314;SDS011;46521;50.160;20.802;2023-03-01T04:05:52;58.90;;;29.40;;
59314;SDS011;46521;50.160;20.802;2023-03-01T04:15:54;57.40;;;29.65;;
59314;SDS011;46521;50.160;20.802;2023-03-01T04:25:57;54.30;;;30.15;;
59314;SDS011;46521;50.160;20.802;2023-03-01T04:35:59;68.60;;;35.50;;
59314;SDS011;46521;50.160;20.802;2023-03-01T04:46:01;66.00;;;35.70;;
59314;SDS011;46521;50.160;20.802;2023-03-01T04:56:04;76.65;;;38.50;;
59314;SDS011;46521;50.160;20.802;2023-03-01T05:06:06;61.05;;;34.75;;
59314;SDS011;46521;50.160;20.802;2023-03-01T05:16:08;59.45;;;33.45;;
59314;SDS011;46521;50.160;20.802;2023-03-01T05:26:13;68.97;;;36.60;;
59314;SDS011;46521;50.160;20.802;2023-03-01T05:36:15;67.40;;;35.45;;
59314;SDS011;46521;50.160;20.802;2023-03-01T05:46:19;63.95;;;34.35;;
59314;SDS011;46521;50.160;20.802;2023-03-01T05:56:20;68.00;;;35.10;;
59314;SDS011;46521;50.160;20.802;2023-03-01T06:06:23;67.45;;;37.95;;
59314;SDS011;46521;50.160;20.802;2023-03-01T06:16:25;120.80;;;57.30;;
59314;SDS011;46521;50.160;20.802;2023-03-01T06:26:26;119.00;;;60.87;;
59314;SDS011;46521;50.160;20.802;2023-03-01T06:36:28;78.40;;;42.15;;
59314;SDS011;46521;50.160;20.802;2023-03-01T06:46:29;78.30;;;40.25;;
59314;SDS011;46521;50.160;20.802;2023-03-01T06:56:31;78.10;;;44.40;;
59314;SDS011;46521;50.160;20.802;2023-03-01T07:06:33;88.40;;;48.50;;
59314;SDS011;46521;50.160;20.802;2023-03-01T07:16:34;83.65;;;46.55;;
59314;SDS011;46521;50.160;20.802;2023-03-01T07:26:36;79.65;;;46.20;;
59314;SDS011;46521;50.160;20.802;2023-03-01T07:36:38;75.60;;;43.75;;
59314;SDS011;46521;50.160;20.802;2023-03-01T07:46:43;75.00;;;47.10;;
59314;SDS011;46521;50.160;20.802;2023-03-01T07:56:45;92.90;;;58.55;;
59314;SDS011;46521;50.160;20.802;2023-03-01T08:06:46;64.50;;;41.80;;
59314;SDS011;46521;50.160;20.802;2023-03-01T08:16:51;69.40;;;41.40;;
59314;SDS011;46521;50.160;20.802;2023-03-01T08:26:52;72.10;;;42.05;;
59314;SDS011;46521;50.160;20.802;2023-03-01T08:36:54;80.30;;;45.50;;
59314;SDS011;46521;50.160;20.802;2023-03-01T08:46:55;74.75;;;44.20;;
59314;SDS011;46521;50.160;20.802;2023-03-01T08:56:58;70.80;;;43.35;;
59314;SDS011;46521;50.160;20.802;2023-03-01T09:07:03;74.70;;;45.10;;
59314;SDS011;46521;50.160;20.802;2023-03-01T09:17:04;74.90;;;43.10;;
59314;SDS011;46521;50.160;20.802;2023-03-01T09:27:06;50.20;;;32.20;;
59314;SDS011;46521;50.160;20.802;2023-03-01T09:37:09;48.90;;;30.30;;
59314;SDS011;46521;50.160;20.802;2023-03-01T09:47:18;44.70;;;26.95;;
59314;SDS011;46521;50.160;20.802;2023-03-01T10:08:02;34.50;;;21.37;;
59314;SDS011;46521;50.160;20.802;2023-03-01T10:18:19;27.40;;;16.20;;
59314;SDS011;46521;50.160;20.802;2023-03-01T10:38:48;24.07;;;14.17;;
59314;SDS011;46521;50.160;20.802;2023-03-01T10:49:13;24.55;;;14.25;;
59314;SDS011;46521;50.160;20.802;2023-03-01T11:09:36;21.90;;;13.88;;
59314;SDS011;46521;50.160;20.802;2023-03-01T11:19:40;26.10;;;14.95;;
59314;SDS011;46521;50.160;20.802;2023-03-01T11:29:43;25.33;;;16.13;;
59314;SDS011;46521;50.160;20.802;2023-03-01T12:22:02;26.45;;;15.23;;
59314;SDS011;46521;50.160;20.802;2023-03-01T13:02:54;29.73;;;16.40;;
59314;SDS011;46521;50.160;20.802;2023-03-01T13:23:30;26.33;;;15.67;;
59314;SDS011;46521;50.160;20.802;2023-03-01T13:43:49;35.90;;;23.65;;
59314;SDS011;46521;50.160;20.802;2023-03-01T13:53:51;27.27;;;16.10;;
59314;SDS011;46521;50.160;20.802;2023-03-01T14:03:56;27.13;;;17.53;;
59314;SDS011;46521;50.160;20.802;2023-03-01T14:24:38;27.88;;;16.00;;
59314;SDS011;46521;50.160;20.802;2023-03-01T14:34:46;26.87;;;17.13;;
59314;SDS011;46521;50.160;20.802;2023-03-01T14:44:50;28.48;;;18.40;;
59314;SDS011;46521;50.160;20.802;2023-03-01T14:54:53;188.10;;;85.50;;
59314;SDS011;46521;50.160;20.802;2023-03-01T15:04:56;30.65;;;17.70;;
59314;SDS011;46521;50.160;20.802;2023-03-01T15:15:06;24.70;;;14.95;;
59314;SDS011;46521;50.160;20.802;2023-03-01T15:25:32;23.87;;;13.93;;
59314;SDS011;46521;50.160;20.802;2023-03-01T15:35:41;26.83;;;15.30;;
59314;SDS011;46521;50.160;20.802;2023-03-01T15:45:47;21.95;;;13.25;;
59314;SDS011;46521;50.160;20.802;2023-03-01T15:55:58;24.63;;;13.57;;
59314;SDS011;46521;50.160;20.802;2023-03-01T16:06:00;23.03;;;13.87;;
59314;SDS011;46521;50.160;20.802;2023-03-01T16:16:01;31.00;;;18.30;;
59314;SDS011;46521;50.160;20.802;2023-03-01T16:26:03;26.20;;;15.40;;
59314;SDS011;46521;50.160;20.802;2023-03-01T16:36:08;25.67;;;14.50;;
59314;SDS011;46521;50.160;20.802;2023-03-01T16:46:14;29.80;;;14.60;;
59314;SDS011;46521;50.160;20.802;2023-03-01T16:56:17;24.30;;;12.30;;
59314;SDS011;46521;50.160;20.802;2023-03-01T17:06:20;22.70;;;13.40;;
59314;SDS011;46521;50.160;20.802;2023-03-01T17:16:22;25.90;;;14.80;;
59314;SDS011;46521;50.160;20.802;2023-03-01T17:26:24;25.45;;;14.00;;
59314;SDS011;46521;50.160;20.802;2023-03-01T17:36:29;29.03;;;16.13;;
59314;SDS011;46521;50.160;20.802;2023-03-01T17:46:31;30.30;;;16.35;;
59314;SDS011;46521;50.160;20.802;2023-03-01T17:56:32;25.73;;;14.77;;
59314;SDS011;46521;50.160;20.802;2023-03-01T18:06:34;34.15;;;18.90;;
59314;SDS011;46521;50.160;20.802;2023-03-01T18:16:36;104.80;;;49.40;;
59314;SDS011;46521;50.160;20.802;2023-03-01T18:26:39;70.10;;;33.90;;
59314;SDS011;46521;50.160;20.802;2023-03-01T18:36:41;22.90;;;13.75;;
59314;SDS011;46521;50.160;20.802;2023-03-01T18:46:43;24.97;;;14.33;;
59314;SDS011;46521;50.160;20.802;2023-03-01T18:56:46;37.10;;;18.60;;
59314;SDS011;46521;50.160;20.802;2023-03-01T19:06:47;26.20;;;14.70;;
59314;SDS011;46521;50.160;20.802;2023-03-01T19:16:49;28.75;;;14.65;;
59314;SDS011;46521;50.160;20.802;2023-03-01T19:26:52;25.40;;;14.30;;
59314;SDS011;46521;50.160;20.802;2023-03-01T19:36:55;23.27;;;14.17;;
59314;SDS011;46521;50.160;20.802;2023-03-01T19:46:57;57.20;;;24.45;;
59314;SDS011;46521;50.160;20.802;2023-03-01T19:56:58;47.20;;;22.65;;
59314;SDS011;46521;50.160;20.802;2023-03-01T20:07:00;54.80;;;25.50;;
59314;SDS011;46521;50.160;20.802;2023-03-01T20:17:01;45.50;;;24.20;;
59314;SDS011;46521;50.160;20.802;2023-03-01T20:27:03;98.00;;;47.10;;
59314;SDS011;46521;50.160;20.802;2023-03-01T20:37:04;120.50;;;60.65;;
59314;SDS011;46521;50.160;20.802;2023-03-01T20:47:09;99.50;;;50.20;;
59314;SDS011;46521;50.160;20.802;2023-03-01T20:57:11;94.40;;;47.60;;
59314;SDS011;46521;50.160;20.802;2023-03-01T21:07:12;101.90;;;53.60;;
59314;SDS011;46521;50.160;20.802;2023-03-01T21:17:15;101.07;;;48.33;;
59314;SDS011;46521;50.160;20.802;2023-03-01T21:27:17;107.30;;;55.50;;
59314;SDS011;46521;50.160;20.802;2023-03-01T21:37:19;141.90;;;68.85;;
59314;SDS011;46521;50.160;20.802;2023-03-01T21:47:26;132.40;;;64.60;;
59314;SDS011;46521;50.160;20.802;2023-03-01T21:57:28;78.50;;;41.85;;
59314;SDS011;46521;50.160;20.802;2023-03-01T22:07:29;74.40;;;39.80;;
59314;SDS011;46521;50.160;20.802;2023-03-01T22:17:31;69.95;;;36.25;;
59314;SDS011;46521;50.160;20.802;2023-03-01T22:27:32;60.40;;;33.10;;
59314;SDS011;46521;50.160;20.802;2023-03-01T22:37:34;61.00;;;34.30;;
59314;SDS011;46521;50.160;20.802;2023-03-01T22:47:36;73.25;;;40.65;;
59314;SDS011;46521;50.160;20.802;2023-03-01T22:57:37;70.65;;;37.55;;
59314;SDS011;46521;50.160;20.802;2023-03-01T23:07:39;64.20;;;36.00;;
59314;SDS011;46521;50.160;20.802;2023-03-01T23:17:40;76.95;;;38.80;;
59314;SDS011;46521;50.160;20.802;2023-03-01T23:27:42;71.57;;;39.77;;
59314;SDS011;46521;50.160;20.802;2023-03-01T23:37:43;67.53;;;35.97;;
59314;SDS011;46521;50.160;20.802;2023-03-01T23:47:46;67.55;;;36.50;;
